Time;durP1;ratioP1;P1;durP2;ratioP2;P2;SDS_P1;SDS_P2;PMS_P1;PMS_P2;Temp;Humidity;BMP_temperature;BMP_pressure;BME280_temperature;BME280_humidity;BME280_pressure;Samples;Min_cycle;Max_cycle;Signal;HPM_P1;HPM_P2
2023/06/28 00:00:13;;;;;;;4.10;2.33;;;23.00;69.30;;;;;;5052545;28;20032;-74
2023/06/28 00:02:39;;;;;;;3.15;2.35;;;22.90;69.40;;;;;;5051552;28;20078;-74
2023/06/28 00:05:09;;;;;;;2.30;2.10;;;22.90;69.40;;;;;;5052745;28;20029;-75
2023/06/28 00:07:35;;;;;;;3.45;2.20;;;22.90;69.50;;;;;;5052595;28;20029;-75
2023/06/28 00:10:01;;;;;;;3.13;2.28;;;22.90;69.90;;;;;;5051897;28;20489;-72
2023/06/28 00:12:29;;;;;;;4.50;2.53;;;22.80;69.70;;;;;;5051848;28;20128;-72
2023/06/28 00:14:55;;;;;;;3.20;2.20;;;22.80;69.50;;;;;;5051848;28;20532;-73
2023/06/28 00:17:27;;;;;;;4.30;2.72;;;22.80;69.60;;;;;;5051614;28;20478;-73
2023/06/28 00:20:06;;;;;;;4.45;2.70;;;22.80;69.80;;;;;;5051802;28;20043;-73
2023/06/28 00:22:32;;;;;;;8.10;2.67;;;22.80;69.90;;;;;;5051899;28;20061;-71
2023/06/28 00:25:03;;;;;;;6.05;2.50;;;22.80;69.70;;;;;;5051573;28;20025;-74
2023/06/28 00:27:30;;;;;;;4.55;2.35;;;22.80;69.60;;;;;;5055862;28;20041;-73
2023/06/28 00:29:56;;;;;;;3.95;2.50;;;22.80;69.70;;;;;;5055509;28;20067;-73
2023/06/28 00:32:22;;;;;;;8.30;2.75;;;22.80;69.70;;;;;;5055257;28;20428;-74
2023/06/28 00:34:47;;;;;;;4.75;2.60;;;22.80;69.70;;;;;;5055840;28;20043;-73
2023/06/28 00:37:13;;;;;;;3.03;2.20;;;22.80;69.40;;;;;;5055642;28;20120;-74
2023/06/28 00:39:39;;;;;;;4.78;2.17;;;22.80;69.20;;;;;;5055364;28;20096;-73
2023/06/28 00:42:05;;;;;;;3.10;2.50;;;22.90;69.20;;;;;;5055284;28;20029;-74
2023/06/28 00:44:31;;;;;;;3.72;2.35;;;22.80;68.90;;;;;;5055100;28;20037;-73
2023/06/28 00:46:58;;;;;;;3.05;2.40;;;22.80;68.80;;;;;;5055274;28;20056;-73
2023/06/28 00:49:27;;;;;;;2.97;2.30;;;22.80;68.90;;;;;;5055306;28;20029;-73
2023/06/28 00:51:54;;;;;;;3.65;2.60;;;22.80;69.00;;;;;;5055378;28;20025;-75
2023/06/28 00:54:20;;;;;;;4.93;2.75;;;22.90;69.20;;;;;;5054326;28;20021;-73
2023/06/28 00:56:48;;;;;;;4.07;2.50;;;22.90;68.90;;;;;;5054138;28;20025;-73
2023/06/28 00:59:15;;;;;;;2.97;2.38;;;22.90;68.70;;;;;;5052515;28;20037;-73
2023/06/28 01:01:41;;;;;;;5.07;2.40;;;22.90;68.40;;;;;;5052140;28;20025;-72
2023/06/28 01:04:07;;;;;;;4.15;2.35;;;22.90;68.30;;;;;;5052618;28;20032;-74
2023/06/28 01:06:36;;;;;;;4.03;2.53;;;22.80;68.10;;;;;;5052162;28;20021;-72
2023/06/28 01:09:10;;;;;;;4.38;2.72;;;22.80;68.30;;;;;;5054052;28;20473;-72
2023/06/28 01:11:36;;;;;;;4.68;2.58;;;22.80;68.40;;;;;;5054816;28;20026;-72
2023/06/28 01:14:03;;;;;;;5.00;2.60;;;22.80;68.40;;;;;;5053314;28;20068;-74
2023/06/28 01:16:29;;;;;;;3.50;2.47;;;22.80;68.20;;;;;;5053187;28;20400;-73
2023/06/28 01:18:55;;;;;;;3.75;2.50;;;22.70;68.20;;;;;;5054138;28;20025;-74
2023/06/28 01:21:25;;;;;;;4.63;2.58;;;22.70;68.50;;;;;;5053125;28;20024;-73
2023/06/28 01:23:51;;;;;;;3.47;2.22;;;22.70;68.40;;;;;;5053608;28;20061;-73
2023/06/28 01:26:17;;;;;;;3.10;2.40;;;22.60;68.20;;;;;;5053663;28;20075;-72
2023/06/28 01:28:45;;;;;;;5.05;2.70;;;22.60;68.30;;;;;;5052896;28;20392;-71
2023/06/28 01:31:11;;;;;;;3.00;2.40;;;22.70;68.60;;;;;;5053509;28;20025;-74
2023/06/28 01:33:42;;;;;;;3.72;3.00;;;22.60;68.40;;;;;;5053964;28;20021;-70
2023/06/28 01:36:11;;;;;;;4.03;2.70;;;22.60;68.00;;;;;;5054645;28;20079;-70
2023/06/28 01:38:38;;;;;;;4.57;2.40;;;22.60;68.20;;;;;;5053494;28;20064;-70
2023/06/28 01:41:06;;;;;;;6.32;2.72;;;22.60;68.20;;;;;;5055075;28;20074;-75
2023/06/28 01:43:33;;;;;;;3.83;2.22;;;22.60;68.30;;;;;;5054980;28;20025;-74
2023/06/28 01:45:58;;;;;;;5.32;2.50;;;22.60;68.20;;;;;;5054831;28;20583;-75
2023/06/28 01:48:25;;;;;;;3.28;2.50;;;22.50;67.90;;;;;;5054848;28;20025;-74
2023/06/28 01:50:52;;;;;;;6.20;2.40;;;22.50;68.00;;;;;;5054691;28;20496;-73
2023/06/28 01:53:18;;;;;;;3.97;2.92;;;22.50;68.20;;;;;;5054620;28;20620;-72
2023/06/28 01:55:44;;;;;;;5.05;2.40;;;22.50;68.50;;;;;;5054710;28;20028;-73
2023/06/28 01:58:09;;;;;;;6.32;2.90;;;22.50;68.40;;;;;;5054535;28;20029;-74
2023/06/28 02:00:35;;;;;;;3.78;2.47;;;22.40;68.10;;;;;;5054620;28;20031;-73
2023/06/28 02:03:01;;;;;;;4.68;2.47;;;22.40;68.00;;;;;;5054550;28;20032;-75
2023/06/28 02:05:27;;;;;;;2.83;2.50;;;22.40;67.90;;;;;;5054654;28;20052;-74
2023/06/28 02:07:52;;;;;;;3.55;2.58;;;22.40;67.90;;;;;;5054508;28;20025;-74
2023/06/28 02:10:21;;;;;;;2.88;2.25;;;22.40;67.90;;;;;;5054260;28;20103;-73
2023/06/28 02:12:47;;;;;;;7.07;2.58;;;22.40;67.80;;;;;;5054449;28;20104;-75
2023/06/28 02:15:14;;;;;;;4.18;2.78;;;22.40;67.90;;;;;;5053727;28;20060;-75
2023/06/28 02:17:39;;;;;;;2.85;2.22;;;22.40;67.90;;;;;;5053944;28;20471;-74
2023/06/28 02:20:08;;;;;;;4.75;2.30;;;22.40;68.00;;;;;;5053989;28;20112;-74
2023/06/28 02:22:34;;;;;;;5.63;2.35;;;22.40;67.90;;;;;;5054348;28;20025;-74
2023/06/28 02:25:00;;;;;;;3.50;2.10;;;22.50;68.00;;;;;;5053418;28;20040;-74
2023/06/28 02:27:26;;;;;;;4.38;2.60;;;22.40;67.90;;;;;;5053556;28;20385;-74
2023/06/28 02:29:51;;;;;;;3.00;2.50;;;22.50;67.80;;;;;;5052652;28;20029;-75
2023/06/28 02:32:17;;;;;;;3.05;2.30;;;22.40;67.70;;;;;;5053071;28;20025;-74
2023/06/28 02:34:43;;;;;;;5.75;2.75;;;22.40;67.70;;;;;;5053247;28;20021;-73
2023/06/28 02:37:08;;;;;;;3.45;2.33;;;22.40;67.70;;;;;;5052708;28;20045;-74
2023/06/28 02:39:34;;;;;;;5.32;2.50;;;22.40;67.90;;;;;;5052818;28;20119;-75
2023/06/28 02:42:00;;;;;;;3.95;2.45;;;22.30;67.90;;;;;;5051963;28;20021;-74
2023/06/28 02:44:25;;;;;;;5.25;2.40;;;22.30;68.10;;;;;;5051548;28;20096;-73
2023/06/28 02:46:51;;;;;;;4.28;2.33;;;22.30;68.10;;;;;;5052278;28;20045;-74
2023/06/28 02:49:17;;;;;;;6.53;2.67;;;22.30;68.40;;;;;;5051523;28;20035;-73
2023/06/28 02:51:42;;;;;;;2.97;2.08;;;22.30;68.40;;;;;;5051946;28;20193;-75
2023/06/28 02:54:09;;;;;;;7.65;2.40;;;22.30;68.40;;;;;;5051616;28;20013;-73
2023/06/28 02:56:34;;;;;;;3.28;2.00;;;22.20;68.60;;;;;;5051569;28;20108;-74
2023/06/28 02:59:00;;;;;;;4.57;2.45;;;22.30;68.90;;;;;;5052037;28;20064;-74
2023/06/28 03:01:26;;;;;;;3.45;2.30;;;22.30;68.70;;;;;;5050957;28;20029;-75
2023/06/28 03:03:52;;;;;;;4.20;2.38;;;22.30;69.10;;;;;;5052237;28;20033;-74
2023/06/28 03:06:19;;;;;;;4.43;2.60;;;22.30;68.90;;;;;;5052089;28;20063;-74
2023/06/28 03:08:45;;;;;;;4.10;2.20;;;22.30;68.80;;;;;;5052124;28;20024;-74
2023/06/28 03:11:31;;;;;;;7.20;2.13;;;22.30;68.60;;;;;;4848619;28;20601;-72
2023/06/28 03:14:03;;;;;;;3.50;2.50;;;22.30;68.70;;;;;;3902586;28;20597;-72
2023/06/28 03:16:28;;;;;;;5.35;2.53;;;22.30;68.80;;;;;;4149457;28;20045;-74
2023/06/28 03:18:54;;;;;;;4.85;2.42;;;22.30;68.60;;;;;;5052439;28;20504;-73
2023/06/28 03:21:20;;;;;;;3.33;2.47;;;22.30;68.60;;;;;;5053080;28;20554;-75
2023/06/28 03:23:45;;;;;;;2.65;2.30;;;22.30;68.70;;;;;;5053018;28;20028;-73
2023/06/28 03:26:11;;;;;;;5.68;2.17;;;22.20;68.30;;;;;;5053161;28;20380;-74
2023/06/28 03:28:37;;;;;;;3.42;2.20;;;22.20;68.40;;;;;;5052970;28;20074;-75
2023/06/28 03:31:02;;;;;;;4.10;2.65;;;22.30;68.70;;;;;;5052706;28;20037;-74
2023/06/28 03:33:28;;;;;;;3.95;2.25;;;22.30;68.90;;;;;;5052955;28;20094;-74
2023/06/28 03:35:54;;;;;;;3.08;2.22;;;22.30;68.80;;;;;;5052680;28;20465;-73
2023/06/28 03:38:19;;;;;;;6.78;2.50;;;22.30;68.70;;;;;;5052898;28;20418;-75
2023/06/28 03:40:45;;;;;;;4.03;2.50;;;22.30;68.50;;;;;;5052896;28;20033;-74
2023/06/28 03:43:11;;;;;;;3.05;2.25;;;22.30;68.60;;;;;;5052766;28;20032;-68
2023/06/28 03:45:36;;;;;;;4.43;2.58;;;22.30;68.40;;;;;;5052806;28;20029;-69
2023/06/28 03:48:02;;;;;;;2.58;1.95;;;22.30;68.70;;;;;;5052454;28;20516;-69
2023/06/28 03:50:28;;;;;;;4.07;2.15;;;22.30;68.80;;;;;;5052829;28;20474;-72
2023/06/28 03:52:53;;;;;;;4.65;2.50;;;22.30;68.80;;;;;;5052649;28;20020;-71
2023/06/28 03:55:19;;;;;;;2.60;2.13;;;22.30;68.50;;;;;;5052522;28;20056;-69
2023/06/28 03:57:45;;;;;;;5.63;2.22;;;22.30;68.20;;;;;;5052293;28;20021;-70
2023/06/28 04:00:12;;;;;;;5.70;2.28;;;22.30;68.20;;;;;;5052557;28;20492;-69
2023/06/28 04:02:39;;;;;;;4.65;2.60;;;22.30;68.30;;;;;;5056446;28;20021;-69
2023/06/28 04:05:05;;;;;;;3.13;2.10;;;22.30;68.50;;;;;;5056736;28;20080;-69
2023/06/28 04:07:31;;;;;;;3.08;2.22;;;22.30;68.80;;;;;;5056493;28;20025;-69
2023/06/28 04:09:57;;;;;;;5.38;2.50;;;22.30;68.50;;;;;;5056636;28;20033;-69
2023/06/28 04:12:22;;;;;;;4.30;2.38;;;22.30;68.80;;;;;;5056714;28;20380;-69
2023/06/28 04:14:49;;;;;;;3.15;2.30;;;22.30;68.70;;;;;;5056727;28;20029;-69
2023/06/28 04:17:15;;;;;;;7.03;2.08;;;22.30;68.80;;;;;;5056652;28;20032;-68
2023/06/28 04:19:40;;;;;;;2.95;2.33;;;22.20;68.70;;;;;;5056434;28;20025;-69
2023/06/28 04:22:06;;;;;;;3.22;2.22;;;22.20;68.80;;;;;;5056171;28;20453;-69
2023/06/28 04:24:32;;;;;;;4.00;2.50;;;22.20;68.80;;;;;;5056406;28;20381;-68
2023/06/28 04:27:00;;;;;;;3.33;2.70;;;22.30;68.60;;;;;;5056643;28;20027;-69
2023/06/28 04:29:27;;;;;;;4.57;2.97;;;22.20;68.40;;;;;;5055987;28;20094;-68
2023/06/28 04:31:53;;;;;;;4.25;2.30;;;22.20;68.50;;;;;;5056006;28;20086;-70
2023/06/28 04:34:19;;;;;;;3.67;2.40;;;22.20;68.50;;;;;;5056033;28;20104;-69
2023/06/28 04:36:46;;;;;;;4.38;2.97;;;22.20;68.60;;;;;;5055679;28;20103;-69
2023/06/28 04:39:12;;;;;;;7.95;2.50;;;22.20;68.70;;;;;;5055849;28;20025;-69
2023/06/28 04:41:38;;;;;;;2.92;2.40;;;22.10;68.80;;;;;;5055512;28;20485;-69
2023/06/28 04:44:04;;;;;;;5.40;2.80;;;22.20;68.80;;;;;;5055779;28;20099;-69
2023/06/28 04:46:32;;;;;;;3.88;2.40;;;22.10;69.30;;;;;;5056004;28;20063;-69
2023/06/28 04:48:58;;;;;;;6.32;2.35;;;22.20;68.80;;;;;;5055597;28;20055;-69
2023/06/28 04:51:24;;;;;;;5.40;2.30;;;22.20;69.00;;;;;;5055744;28;20029;-69
2023/06/28 04:53:50;;;;;;;5.32;2.58;;;22.20;68.90;;;;;;5056390;28;20385;-69
2023/06/28 04:56:15;;;;;;;2.92;2.33;;;22.20;68.60;;;;;;5055856;28;20056;-68
2023/06/28 04:58:42;;;;;;;8.52;2.80;;;22.20;68.60;;;;;;5055666;28;20064;-69
2023/06/28 05:01:08;;;;;;;7.35;2.78;;;22.20;68.60;;;;;;5055426;28;20022;-69
2023/06/28 05:03:38;;;;;;;4.03;2.50;;;22.20;68.60;;;;;;5055315;28;20020;-69
2023/06/28 05:06:08;;;;;;;7.22;2.70;;;22.20;68.40;;;;;;5055336;28;20029;-68
2023/06/28 05:08:34;;;;;;;3.00;2.40;;;22.20;68.40;;;;;;5055625;28;20025;-68
2023/06/28 05:11:03;;;;;;;5.55;2.30;;;22.20;68.20;;;;;;5055057;28;20090;-70
2023/06/28 05:13:29;;;;;;;3.88;2.30;;;22.20;68.30;;;;;;5055655;28;20097;-68
2023/06/28 05:15:54;;;;;;;7.43;2.90;;;22.20;68.20;;;;;;5055511;28;20025;-68
2023/06/28 05:18:20;;;;;;;7.32;2.90;;;22.20;68.40;;;;;;5055284;28;20074;-69
2023/06/28 05:20:46;;;;;;;6.22;2.75;;;22.20;68.20;;;;;;5055185;28;20032;-68
2023/06/28 05:23:15;;;;;;;2.83;2.10;;;22.30;68.00;;;;;;5055249;28;20029;-68
2023/06/28 05:25:41;;;;;;;4.10;2.10;;;22.30;68.10;;;;;;5055346;28;20036;-69
2023/06/28 05:28:09;;;;;;;2.28;2.03;;;22.30;68.40;;;;;;5055212;28;20481;-68
2023/06/28 05:30:35;;;;;;;4.03;2.53;;;22.30;68.70;;;;;;5055123;28;20033;-69
2023/06/28 05:33:02;;;;;;;3.13;2.40;;;22.30;68.30;;;;;;5055126;28;20032;-69
2023/06/28 05:35:35;;;;;;;5.53;2.47;;;22.30;67.60;;;;;;5055178;28;20028;-68
2023/06/28 05:38:05;;;;;;;3.17;2.38;;;22.40;68.40;;;;;;5054793;28;20090;-68
2023/06/28 05:40:32;;;;;;;4.97;2.42;;;22.40;68.40;;;;;;5054669;28;20496;-69
2023/06/28 05:42:58;;;;;;;6.32;2.80;;;22.50;67.20;;;;;;5054785;28;20021;-68
2023/06/28 05:45:28;;;;;;;3.60;2.28;;;22.50;66.70;;;;;;5054688;28;20029;-69
2023/06/28 05:47:54;;;;;;;3.47;2.30;;;22.50;66.70;;;;;;5054954;28;20033;-69
2023/06/28 05:50:23;;;;;;;3.08;2.55;;;22.50;66.70;;;;;;5054530;28;20550;-68
2023/06/28 05:52:49;;;;;;;5.53;2.60;;;22.60;66.90;;;;;;5052845;28;20029;-71
2023/06/28 05:55:16;;;;;;;5.97;2.33;;;22.60;66.90;;;;;;5054395;28;20025;-72
2023/06/28 05:57:42;;;;;;;5.35;2.22;;;22.60;66.90;;;;;;5054416;28;20504;-71
2023/06/28 06:00:10;;;;;;;3.17;2.47;;;22.50;66.70;;;;;;5053769;28;20384;-69
2023/06/28 06:02:36;;;;;;;3.15;2.35;;;22.50;66.90;;;;;;5053772;28;20532;-75
2023/06/28 06:05:03;;;;;;;3.00;2.38;;;22.50;66.90;;;;;;5054111;28;20108;-71
2023/06/28 06:07:29;;;;;;;3.85;2.58;;;22.50;67.50;;;;;;5054399;28;20024;-75
2023/06/28 06:09:55;;;;;;;4.82;2.17;;;22.50;67.70;;;;;;5053792;28;20040;-71
2023/06/28 06:12:21;;;;;;;7.45;2.15;;;22.60;67.40;;;;;;5054069;28;20100;-71
2023/06/28 06:14:50;;;;;;;3.97;2.00;;;22.60;66.80;;;;;;5052759;28;20124;-69
2023/06/28 06:17:19;;;;;;;5.25;2.40;;;22.50;66.30;;;;;;5054453;28;20092;-70
2023/06/28 06:19:45;;;;;;;5.03;2.28;;;22.50;66.10;;;;;;5054299;28;20108;-68
2023/06/28 06:22:11;;;;;;;4.70;2.42;;;22.50;66.10;;;;;;5054250;28;20036;-71
2023/06/28 06:24:37;;;;;;;4.30;2.10;;;22.50;66.10;;;;;;5053102;28;20031;-70
2023/06/28 06:27:03;;;;;;;6.63;2.40;;;22.50;66.10;;;;;;5053763;28;20807;-69
2023/06/28 06:29:29;;;;;;;7.43;2.40;;;22.60;66.20;;;;;;5053579;28;20037;-69
2023/06/28 06:31:55;;;;;;;5.68;2.38;;;22.60;66.50;;;;;;5054056;28;20040;-68
2023/06/28 06:34:21;;;;;;;3.63;2.45;;;22.60;66.90;;;;;;5053851;28;20033;-69
2023/06/28 06:36:46;;;;;;;4.10;2.40;;;22.60;66.90;;;;;;5053499;28;20049;-69
2023/06/28 06:39:12;;;;;;;3.45;2.15;;;22.60;67.00;;;;;;5054113;28;20443;-70
2023/06/28 06:41:38;;;;;;;5.00;2.42;;;22.60;67.30;;;;;;5053860;28;20036;-71
2023/06/28 06:44:04;;;;;;;5.80;2.53;;;22.70;67.80;;;;;;5053723;28;20021;-69
2023/06/28 06:46:29;;;;;;;6.80;2.30;;;22.70;68.30;;;;;;5052904;28;20063;-69
2023/06/28 06:48:55;;;;;;;4.18;2.30;;;22.70;67.40;;;;;;5053225;28;20017;-68
2023/06/28 06:51:21;;;;;;;5.03;2.40;;;22.70;67.30;;;;;;5053475;28;20108;-69
2023/06/28 06:53:47;;;;;;;5.28;2.55;;;22.70;67.50;;;;;;5053414;28;20397;-69
2023/06/28 06:56:12;;;;;;;8.77;2.72;;;22.80;67.60;;;;;;5052465;28;20028;-69
2023/06/28 06:58:38;;;;;;;5.75;2.38;;;22.70;66.50;;;;;;5053490;28;20055;-68
2023/06/28 07:01:04;;;;;;;6.20;2.42;;;22.80;66.40;;;;;;5053529;28;20025;-69
2023/06/28 07:03:30;;;;;;;3.17;2.30;;;22.90;66.00;;;;;;5053505;28;20025;-68
2023/06/28 07:05:55;;;;;;;3.45;2.20;;;22.90;65.80;;;;;;5053496;28;20067;-69
2023/06/28 07:08:21;;;;;;;4.65;2.40;;;22.90;65.50;;;;;;5053530;28;20028;-69
2023/06/28 07:10:47;;;;;;;3.50;2.50;;;22.90;65.70;;;;;;5052568;28;20565;-69
2023/06/28 07:13:14;;;;;;;4.30;2.17;;;22.90;66.20;;;;;;5053064;28;20049;-68
2023/06/28 07:15:40;;;;;;;6.25;2.40;;;22.90;66.30;;;;;;5053238;28;20107;-69
2023/06/28 07:18:06;;;;;;;7.10;2.28;;;23.00;66.10;;;;;;5053033;28;20108;-69
2023/06/28 07:20:31;;;;;;;4.30;2.08;;;23.00;65.30;;;;;;5053198;28;20032;-68
2023/06/28 07:22:57;;;;;;;9.38;2.53;;;23.00;64.90;;;;;;5053084;28;20540;-69
2023/06/28 07:25:23;;;;;;;6.38;2.58;;;23.00;64.40;;;;;;5052833;28;20086;-68
2023/06/28 07:27:48;;;;;;;4.78;2.22;;;23.10;65.20;;;;;;5053316;28;20024;-68
2023/06/28 07:30:14;;;;;;;8.27;2.30;;;23.10;64.90;;;;;;5052953;28;20091;-69
2023/06/28 07:32:40;;;;;;;7.18;2.30;;;23.20;64.80;;;;;;5052822;28;20060;-68
2023/06/28 07:37:34;;;;;;;10.18;2.20;;;23.10;64.60;;;;;;5031779;28;20092;-75
2023/06/28 07:40:00;;;;;;;8.27;1.85;;;23.10;64.60;;;;;;5033046;28;20025;-75
2023/06/28 07:42:27;;;;;;;4.95;1.65;;;23.10;65.00;;;;;;5033176;28;20037;-77
2023/06/28 07:44:53;;;;;;;2.80;1.50;;;23.10;65.00;;;;;;5033033;28;20021;-77
2023/06/28 07:47:18;;;;;;;2.47;1.30;;;23.10;63.90;;;;;;5033014;28;20029;-76
2023/06/28 07:49:44;;;;;;;3.53;1.50;;;23.00;63.20;;;;;;5033135;28;20162;-77
2023/06/28 07:52:10;;;;;;;2.38;1.30;;;23.00;63.40;;;;;;5033185;28;20091;-77
2023/06/28 07:54:37;;;;;;;3.42;1.20;;;23.00;63.70;;;;;;5032983;28;20477;-76
2023/06/28 07:57:03;;;;;;;2.92;1.63;;;22.90;63.60;;;;;;5032912;28;20461;-76
2023/06/28 07:59:29;;;;;;;3.55;1.20;;;23.00;62.10;;;;;;5032845;28;20034;-77
2023/06/28 08:01:54;;;;;;;1.40;1.15;;;23.00;62.00;;;;;;5033111;28;20033;-76
2023/06/28 08:04:20;;;;;;;6.70;1.25;;;22.90;61.40;;;;;;5033013;28;20021;-77
2023/06/28 08:06:47;;;;;;;4.07;1.30;;;22.90;61.40;;;;;;5032723;28;20076;-76
2023/06/28 08:09:13;;;;;;;2.85;1.27;;;22.90;61.40;;;;;;5031364;28;20017;-76
2023/06/28 08:11:39;;;;;;;5.97;1.60;;;22.90;61.10;;;;;;5032733;28;20102;-77
2023/06/28 08:14:05;;;;;;;2.75;1.10;;;22.90;60.50;;;;;;5032864;28;20021;-77
2023/06/28 08:16:31;;;;;;;4.55;1.67;;;22.90;60.40;;;;;;5032879;28;20021;-76
2023/06/28 08:18:56;;;;;;;5.15;1.10;;;22.80;60.00;;;;;;5032798;28;20385;-77
2023/06/28 08:21:22;;;;;;;3.53;1.30;;;22.80;59.30;;;;;;5032911;28;20022;-77
2023/06/28 08:23:48;;;;;;;2.80;1.20;;;22.80;59.30;;;;;;5032714;28;20112;-77
2023/06/28 08:26:14;;;;;;;3.97;1.27;;;22.90;58.80;;;;;;5032624;28;20418;-77
2023/06/28 08:28:40;;;;;;;4.35;1.33;;;23.00;58.10;;;;;;5044565;28;20037;-77
2023/06/28 08:31:06;;;;;;;3.60;1.00;;;23.00;58.00;;;;;;5055592;28;20018;-76
2023/06/28 08:33:31;;;;;;;5.10;1.08;;;23.10;57.00;;;;;;5045489;28;20036;-76
2023/06/28 08:35:57;;;;;;;3.85;1.45;;;23.10;57.00;;;;;;5057120;28;20033;-75
2023/06/28 08:38:23;;;;;;;1.95;1.27;;;23.10;57.00;;;;;;5054547;28;20030;-77
2023/06/28 08:40:49;;;;;;;1.58;1.00;;;23.10;58.00;;;;;;5032676;28;20049;-77
2023/06/28 08:43:17;;;;;;;3.60;0.70;;;23.20;57.90;;;;;;5032481;28;20025;-77
2023/06/28 08:45:46;;;;;;;6.45;1.50;;;23.20;58.20;;;;;;5032454;28;20021;-76
2023/06/28 08:48:13;;;;;;;2.22;0.80;;;23.30;58.70;;;;;;5035802;28;20029;-77
2023/06/28 08:50:40;;;;;;;0.95;0.63;;;23.40;58.20;;;;;;5036086;28;20045;-77
2023/06/28 08:53:09;;;;;;;1.35;0.80;;;23.40;58.20;;;;;;5036020;28;20398;-77
2023/06/28 08:55:36;;;;;;;3.80;0.80;;;23.50;58.30;;;;;;5036165;28;20025;-77
2023/06/28 08:58:03;;;;;;;1.40;0.73;;;23.60;58.50;;;;;;5036152;28;20425;-77
2023/06/28 09:00:29;;;;;;;1.70;0.70;;;23.60;58.80;;;;;;5036047;28;20061;-77
2023/06/28 09:02:57;;;;;;;2.47;0.80;;;23.70;58.10;;;;;;5036150;28;20107;-78
2023/06/28 09:05:23;;;;;;;1.13;0.70;;;23.80;58.30;;;;;;5035957;28;20029;-77
2023/06/28 09:07:52;;;;;;;1.23;0.60;;;23.80;59.30;;;;;;5035876;28;20029;-77
2023/06/28 09:10:18;;;;;;;2.65;0.70;;;23.90;58.70;;;;;;5036052;28;20112;-77
2023/06/28 09:12:45;;;;;;;0.98;0.50;;;24.00;57.70;;;;;;5036007;28;20433;-77
2023/06/28 09:15:11;;;;;;;0.45;0.45;;;24.00;57.90;;;;;;5036006;28;20101;-77
2023/06/28 09:17:37;;;;;;;1.60;0.60;;;24.10;57.70;;;;;;5035825;28;20025;-77
2023/06/28 09:20:19;;;;;;;1.35;0.55;;;24.10;57.40;;;;;;5035602;28;20391;-77
2023/06/28 09:22:56;;;;;;;2.35;0.50;;;24.20;57.10;;;;;;5035679;28;20033;-77
2023/06/28 09:25:23;;;;;;;2.90;1.10;;;24.20;57.30;;;;;;5017994;28;20050;-77
2023/06/28 09:27:48;;;;;;;2.65;0.50;;;24.30;56.50;;;;;;5035541;28;20104;-77
2023/06/28 09:30:21;;;;;;;4.18;0.60;;;24.40;56.60;;;;;;5035349;28;20121;-77
2023/06/28 09:32:51;;;;;;;0.60;0.60;;;24.40;56.40;;;;;;5035744;28;20072;-77
2023/06/28 09:35:20;;;;;;;1.45;0.45;;;24.40;56.10;;;;;;5035153;28;20057;-77
2023/06/28 09:37:54;;;;;;;3.13;0.50;;;24.50;56.20;;;;;;5035293;28;20025;-77
2023/06/28 09:40:20;;;;;;;1.33;0.60;;;24.50;55.20;;;;;;5035122;28;20048;-76
2023/06/28 09:42:50;;;;;;;0.40;0.30;;;24.50;55.40;;;;;;5035482;28;20018;-77
2023/06/28 09:45:37;;;;;;;5.63;1.50;;;24.50;55.30;;;;;;5035397;28;20381;-77
2023/06/28 09:48:04;;;;;;;1.50;0.50;;;24.50;55.30;;;;;;5035079;28;20112;-77
2023/06/28 09:50:38;;;;;;;0.30;0.30;;;24.50;55.90;;;;;;5035235;28;20507;-76
2023/06/28 09:53:12;;;;;;;2.25;0.35;;;24.60;56.30;;;;;;5035351;28;20037;-78
2023/06/28 09:55:43;;;;;;;3.63;0.60;;;24.70;55.50;;;;;;5035029;28;20103;-77
2023/06/28 09:58:14;;;;;;;1.58;0.40;;;24.70;54.40;;;;;;5033635;28;20473;-78
2023/06/28 10:00:41;;;;;;;0.73;0.30;;;24.80;54.70;;;;;;5017216;28;20029;-77
2023/06/28 10:03:10;;;;;;;1.58;0.57;;;24.80;55.30;;;;;;5034835;28;20424;-76
2023/06/28 10:05:38;;;;;;;0.80;0.40;;;24.90;55.20;;;;;;5034853;28;20032;-77
2023/06/28 10:08:13;;;;;;;0.65;0.50;;;25.00;54.00;;;;;;5034760;28;20377;-77
2023/06/28 10:10:40;;;;;;;1.33;0.50;;;25.00;53.10;;;;;;5034793;28;20029;-76
2023/06/28 10:13:09;;;;;;;4.25;0.50;;;25.10;54.10;;;;;;5034374;28;20608;-77
2023/06/28 10:16:02;;;;;;;0.65;0.40;;;25.20;53.40;;;;;;5034697;28;20398;-76
2023/06/28 10:18:29;;;;;;;1.52;0.60;;;25.20;53.90;;;;;;5034595;28;20033;-75
2023/06/28 10:20:54;;;;;;;1.45;0.50;;;25.30;54.50;;;;;;5034226;28;20100;-76
2023/06/28 10:23:21;;;;;;;0.82;0.50;;;25.30;53.90;;;;;;5032709;28;20112;-76
2023/06/28 10:25:47;;;;;;;3.67;0.60;;;25.40;53.10;;;;;;5034108;28;20482;-76
2023/06/28 10:28:13;;;;;;;1.38;0.80;;;25.40;52.00;;;;;;5033174;28;20102;-76
2023/06/28 10:30:40;;;;;;;1.00;0.50;;;25.40;52.40;;;;;;5033571;28;20531;-76
2023/06/28 10:33:06;;;;;;;1.75;0.70;;;25.40;52.90;;;;;;5033876;28;20076;-76
2023/06/28 10:35:32;;;;;;;2.58;0.75;;;25.50;53.00;;;;;;5033262;28;20077;-76
2023/06/28 10:37:59;;;;;;;4.32;0.70;;;25.50;52.10;;;;;;5033882;28;20409;-77
2023/06/28 10:40:25;;;;;;;5.68;0.70;;;25.50;52.30;;;;;;5033798;28;20664;-76
2023/06/28 10:42:51;;;;;;;1.85;0.70;;;25.50;51.50;;;;;;5033657;28;20108;-76
2023/06/28 10:45:31;;;;;;;5.10;0.90;;;25.50;52.30;;;;;;5034130;28;20057;-77
2023/06/28 10:47:56;;;;;;;1.48;0.70;;;25.60;52.00;;;;;;5033788;28;20029;-77
2023/06/28 10:50:23;;;;;;;1.45;0.55;;;25.60;52.30;;;;;;5033760;28;20029;-76
2023/06/28 10:52:54;;;;;;;2.05;0.50;;;25.70;53.30;;;;;;5033958;28;20396;-76
2023/06/28 10:55:21;;;;;;;0.88;0.50;;;25.70;52.00;;;;;;5033774;28;20029;-78
2023/06/28 10:58:07;;;;;;;1.20;0.60;;;25.80;52.30;;;;;;5016006;28;20026;-78
2023/06/28 11:00:44;;;;;;;1.33;0.70;;;25.80;52.00;;;;;;5033532;28;20389;-77
2023/06/28 11:03:10;;;;;;;1.40;0.60;;;25.90;51.70;;;;;;5033714;28;20120;-77
2023/06/28 11:05:38;;;;;;;2.05;0.80;;;26.00;51.00;;;;;;5033473;28;20093;-77
2023/06/28 11:08:15;;;;;;;2.13;0.70;;;26.00;50.90;;;;;;5033704;28;20030;-77
2023/06/28 11:10:42;;;;;;;2.13;0.80;;;26.00;51.70;;;;;;5033315;28;20520;-77
2023/06/28 11:13:12;;;;;;;0.93;0.60;;;26.10;52.30;;;;;;5033713;28;20048;-77
2023/06/28 11:15:47;;;;;;;3.53;0.70;;;26.10;51.50;;;;;;5033580;28;20487;-77
2023/06/28 11:18:18;;;;;;;1.20;0.75;;;26.20;51.30;;;;;;5033596;28;20029;-76
2023/06/28 11:20:56;;;;;;;3.33;0.70;;;26.20;50.30;;;;;;5033558;28;20521;-77
2023/06/28 11:23:43;;;;;;;0.90;0.50;;;26.20;50.10;;;;;;5033462;28;20013;-75
2023/06/28 11:26:14;;;;;;;0.98;0.77;;;26.30;49.20;;;;;;5029219;28;20046;-74
2023/06/28 11:28:55;;;;;;;1.05;0.70;;;26.20;49.80;;;;;;5033332;28;20025;-74
2023/06/28 11:31:38;;;;;;;0.77;0.50;;;26.20;50.00;;;;;;5032907;28;20040;-75
2023/06/28 11:34:04;;;;;;;2.45;0.85;;;26.20;49.90;;;;;;5032789;28;20017;-72
2023/06/28 11:36:30;;;;;;;0.98;0.60;;;26.20;50.50;;;;;;5029751;28;20069;-72
2023/06/28 11:38:56;;;;;;;0.40;0.40;;;26.30;51.20;;;;;;5029913;28;20104;-72
2023/06/28 11:41:22;;;;;;;2.88;0.60;;;26.40;51.20;;;;;;5031149;28;20097;-72
2023/06/28 11:43:48;;;;;;;0.60;0.60;;;26.50;51.60;;;;;;5032130;28;20025;-72
2023/06/28 11:46:22;;;;;;;1.52;0.65;;;26.50;51.00;;;;;;5032419;28;20469;-73
2023/06/28 11:48:51;;;;;;;0.85;0.40;;;26.60;50.50;;;;;;5032374;28;20025;-72
2023/06/28 11:51:17;;;;;;;0.73;0.60;;;26.60;50.40;;;;;;5032301;28;20136;-72
2023/06/28 11:53:49;;;;;;;0.68;0.57;;;26.70;49.90;;;;;;5032865;28;20024;-72
2023/06/28 11:56:14;;;;;;;0.75;0.50;;;26.70;49.20;;;;;;5032975;28;20060;-73
2023/06/28 11:58:40;;;;;;;0.60;0.60;;;26.70;49.70;;;;;;5032687;28;20438;-71
2023/06/28 12:01:19;;;;;;;2.40;0.77;;;26.70;49.80;;;;;;5032925;28;20040;-71
2023/06/28 12:03:45;;;;;;;5.65;0.68;;;26.80;50.70;;;;;;5032786;28;20029;-72
2023/06/28 12:06:10;;;;;;;1.02;0.77;;;26.90;50.00;;;;;;5030281;28;20033;-71
2023/06/28 12:08:41;;;;;;;1.05;0.60;;;26.90;49.60;;;;;;5030219;28;20438;-71
2023/06/28 12:11:15;;;;;;;0.73;0.50;;;27.00;50.90;;;;;;5032703;28;20034;-72
2023/06/28 12:13:41;;;;;;;1.77;0.50;;;27.00;50.00;;;;;;5032860;28;20492;-71
2023/06/28 12:16:18;;;;;;;0.43;0.40;;;27.10;48.40;;;;;;5015280;28;20028;-72
2023/06/28 12:19:02;;;;;;;0.40;0.30;;;27.10;47.60;;;;;;5032762;28;20022;-71
2023/06/28 12:21:30;;;;;;;1.38;0.40;;;27.20;47.80;;;;;;5033393;28;20037;-72
2023/06/28 12:24:34;;;;;;;0.55;0.40;;;27.30;48.70;;;;;;5036824;28;20433;-72
2023/06/28 12:27:01;;;;;;;1.30;0.60;;;27.30;47.90;;;;;;4997984;28;20557;-73
2023/06/28 12:29:30;;;;;;;1.00;0.60;;;27.40;48.00;;;;;;5032511;28;20041;-73
2023/06/28 12:32:03;;;;;;;1.13;0.52;;;27.40;47.90;;;;;;5036511;28;20025;-73
2023/06/28 12:34:34;;;;;;;1.17;0.55;;;27.40;48.20;;;;;;5036439;28;20041;-72
2023/06/28 12:37:09;;;;;;;0.63;0.50;;;27.50;48.00;;;;;;5036335;28;20560;-73
2023/06/28 12:39:37;;;;;;;0.40;0.40;;;27.50;48.20;;;;;;5036238;28;20029;-73
2023/06/28 12:42:19;;;;;;;0.75;0.47;;;27.50;48.30;;;;;;5035946;28;20037;-73
2023/06/28 12:44:58;;;;;;;;;;;27.50;49.40;;;;;;5036647;28;20466;-73
2023/06/28 12:47:27;;;;;;;1.10;0.50;;;27.60;48.50;;;;;;5035865;28;19948;-72
2023/06/28 12:49:53;;;;;;;0.50;0.50;;;27.60;48.10;;;;;;5035627;28;20112;-72
2023/06/28 12:52:26;;;;;;;0.55;0.50;;;27.70;48.20;;;;;;5036087;28;20037;-72